sensor_id;sensor_type;location;lat;lon;timestamp;temperature;humidity
13433;DHT22;6789;47.678;9.158;2022-07-29T00:03:11;21.30;99.90
13433;DHT22;6789;47.678;9.158;2022-07-29T00:08:17;21.40;99.90
13433;DHT22;6789;47.678;9.158;2022-07-29T00:13:09;21.40;99.90
13433;DHT22;6789;47.678;9.158;2022-07-29T00:18:01;21.30;99.90
13433;DHT22;6789;47.678;9.158;2022-07-29T00:22:54;20.90;99.90
13433;DHT22;6789;47.678;9.158;2022-07-29T00:27:46;20.50;99.90
13433;DHT22;6789;47.678;9.158;2022-07-29T00:32:38;20.30;99.90
13433;DHT22;6789;47.678;9.158;2022-07-29T00:37:30;20.20;99.90
13433;DHT22;6789;47.678;9.158;2022-07-29T00:42:22;20.10;99.90
13433;DHT22;6789;47.678;9.158;2022-07-29T00:47:14;19.90;99.90
13433;DHT22;6789;47.678;9.158;2022-07-29T00:52:07;19.90;99.90
13433;DHT22;6789;47.678;9.158;2022-07-29T00:57:01;19.90;99.90
13433;DHT22;6789;47.678;9.158;2022-07-29T01:02:07;19.80;99.90
13433;DHT22;6789;47.678;9.158;2022-07-29T01:07:03;20.20;99.90
13433;DHT22;6789;47.678;9.158;2022-07-29T01:12:10;20.50;99.90
13433;DHT22;6789;47.678;9.158;2022-07-29T01:17:17;20.60;99.90
13433;DHT22;6789;47.678;9.158;2022-07-29T01:32:58;20.30;99.90
13433;DHT22;6789;47.678;9.158;2022-07-29T01:38:21;20.20;99.90
13433;DHT22;6789;47.678;9.158;2022-07-29T01:43:19;20.10;99.90
13433;DHT22;6789;47.678;9.158;2022-07-29T01:48:27;20.10;99.90
13433;DHT22;6789;47.678;9.158;2022-07-29T01:53:35;19.80;99.90
13433;DHT22;6789;47.678;9.158;2022-07-29T01:58:35;19.90;99.90
13433;DHT22;6789;47.678;9.158;2022-07-29T02:03:31;20.20;99.90
13433;DHT22;6789;47.678;9.158;2022-07-29T02:08:28;19.70;99.90
13433;DHT22;6789;47.678;9.158;2022-07-29T02:13:36;19.80;99.90
13433;DHT22;6789;47.678;9.158;2022-07-29T02:18:30;19.90;99.90
13433;DHT22;6789;47.678;9.158;2022-07-29T02:23:23;19.50;99.90
13433;DHT22;6789;47.678;9.158;2022-07-29T02:28:17;19.20;99.90
13433;DHT22;6789;47.678;9.158;2022-07-29T02:33:13;19.50;99.90
13433;DHT22;6789;47.678;9.158;2022-07-29T02:38:09;19.50;99.90
13433;DHT22;6789;47.678;9.158;2022-07-29T02:43:24;19.50;99.90
13433;DHT22;6789;47.678;9.158;2022-07-29T02:48:18;20.00;99.90
13433;DHT22;6789;47.678;9.158;2022-07-29T02:53:24;19.70;99.90
13433;DHT22;6789;47.678;9.158;2022-07-29T02:58:38;19.60;99.90
13433;DHT22;6789;47.678;9.158;2022-07-29T03:03:37;19.40;99.90
13433;DHT22;6789;47.678;9.158;2022-07-29T03:08:32;19.40;99.90
13433;DHT22;6789;47.678;9.158;2022-07-29T03:13:24;19.70;99.90
13433;DHT22;6789;47.678;9.158;2022-07-29T03:18:18;19.90;99.90
13433;DHT22;6789;47.678;9.158;2022-07-29T03:23:10;19.70;99.90
13433;DHT22;6789;47.678;9.158;2022-07-29T03:28:02;19.70;99.90
13433;DHT22;6789;47.678;9.158;2022-07-29T03:32:54;19.80;99.90
13433;DHT22;6789;47.678;9.158;2022-07-29T03:38:00;20.00;99.90
13433;DHT22;6789;47.678;9.158;2022-07-29T03:43:20;20.20;99.90
13433;DHT22;6789;47.678;9.158;2022-07-29T03:48:18;20.20;99.90
13433;DHT22;6789;47.678;9.158;2022-07-29T03:53:22;19.90;99.90
13433;DHT22;6789;47.678;9.158;2022-07-29T03:58:15;19.70;99.90
13433;DHT22;6789;47.678;9.158;2022-07-29T04:03:09;19.90;99.90
13433;DHT22;6789;47.678;9.158;2022-07-29T04:08:15;20.10;99.90
13433;DHT22;6789;47.678;9.158;2022-07-29T04:13:08;20.10;99.90
13433;DHT22;6789;47.678;9.158;2022-07-29T04:18:14;20.00;99.90
13433;DHT22;6789;47.678;9.158;2022-07-29T04:23:07;20.30;99.90
13433;DHT22;6789;47.678;9.158;2022-07-29T04:28:08;21.10;99.90
13433;DHT22;6789;47.678;9.158;2022-07-29T04:33:15;21.80;99.90
13433;DHT22;6789;47.678;9.158;2022-07-29T04:38:21;21.80;99.90
13433;DHT22;6789;47.678;9.158;2022-07-29T04:43:27;21.10;99.90
13433;DHT22;6789;47.678;9.158;2022-07-29T04:48:27;20.80;99.90
13433;DHT22;6789;47.678;9.158;2022-07-29T04:53:19;20.60;99.90
13433;DHT22;6789;47.678;9.158;2022-07-29T04:58:12;20.90;99.90
13433;DHT22;6789;47.678;9.158;2022-07-29T05:03:04;20.70;99.90
13433;DHT22;6789;47.678;9.158;2022-07-29T05:07:56;20.50;99.90
13433;DHT22;6789;47.678;9.158;2022-07-29T05:12:56;20.20;99.90
13433;DHT22;6789;47.678;9.158;2022-07-29T05:17:52;20.30;99.90
13433;DHT22;6789;47.678;9.158;2022-07-29T05:22:59;20.10;99.90
13433;DHT22;6789;47.678;9.158;2022-07-29T05:27:52;20.00;99.90
13433;DHT22;6789;47.678;9.158;2022-07-29T05:32:46;20.20;99.90
13433;DHT22;6789;47.678;9.158;2022-07-29T05:37:42;20.10;99.90
13433;DHT22;6789;47.678;9.158;2022-07-29T05:42:35;20.20;99.90
13433;DHT22;6789;47.678;9.158;2022-07-29T05:47:41;20.00;99.90
13433;DHT22;6789;47.678;9.158;2022-07-29T05:52:35;19.90;99.90
13433;DHT22;6789;47.678;9.158;2022-07-29T05:57:31;19.80;99.90
13433;DHT22;6789;47.678;9.158;2022-07-29T06:02:23;19.80;99.90
13433;DHT22;6789;47.678;9.158;2022-07-29T06:07:16;19.80;99.90
13433;DHT22;6789;47.678;9.158;2022-07-29T06:12:12;19.90;99.90
13433;DHT22;6789;47.678;9.158;2022-07-29T06:17:11;20.10;99.90
13433;DHT22;6789;47.678;9.158;2022-07-29T06:22:07;20.50;99.90
13433;DHT22;6789;47.678;9.158;2022-07-29T06:27:13;20.50;99.90
13433;DHT22;6789;47.678;9.158;2022-07-29T06:32:20;20.70;99.90
13433;DHT22;6789;47.678;9.158;2022-07-29T06:37:27;21.10;99.90
13433;DHT22;6789;47.678;9.158;2022-07-29T06:42:32;21.50;99.90
13433;DHT22;6789;47.678;9.158;2022-07-29T06:47:38;21.90;99.90
13433;DHT22;6789;47.678;9.158;2022-07-29T06:52:31;22.20;99.90
13433;DHT22;6789;47.678;9.158;2022-07-29T06:57:37;22.70;99.90
13433;DHT22;6789;47.678;9.158;2022-07-29T07:02:46;22.40;99.90
13433;DHT22;6789;47.678;9.158;2022-07-29T07:08:02;22.60;99.90
13433;DHT22;6789;47.678;9.158;2022-07-29T07:13:03;22.50;99.90
13433;DHT22;6789;47.678;9.158;2022-07-29T07:18:11;22.90;99.90
13433;DHT22;6789;47.678;9.158;2022-07-29T07:23:06;23.50;99.90
13433;DHT22;6789;47.678;9.158;2022-07-29T07:28:12;23.60;99.90
13433;DHT22;6789;47.678;9.158;2022-07-29T07:33:05;23.30;99.90
13433;DHT22;6789;47.678;9.158;2022-07-29T07:37:59;23.40;99.90
13433;DHT22;6789;47.678;9.158;2022-07-29T07:43:06;23.60;99.90
13433;DHT22;6789;47.678;9.158;2022-07-29T07:48:11;23.90;99.90
13433;DHT22;6789;47.678;9.158;2022-07-29T07:53:18;24.00;99.90
13433;DHT22;6789;47.678;9.158;2022-07-29T07:58:24;24.40;99.90
13433;DHT22;6789;47.678;9.158;2022-07-29T08:03:29;24.80;99.90
13433;DHT22;6789;47.678;9.158;2022-07-29T08:08:35;25.10;99.90
13433;DHT22;6789;47.678;9.158;2022-07-29T08:13:31;25.30;99.90
13433;DHT22;6789;47.678;9.158;2022-07-29T08:18:32;25.30;99.90
13433;DHT22;6789;47.678;9.158;2022-07-29T08:23:37;25.60;99.90
13433;DHT22;6789;47.678;9.158;2022-07-29T08:28:45;25.80;99.90
13433;DHT22;6789;47.678;9.158;2022-07-29T08:33:54;25.80;99.90
13433;DHT22;6789;47.678;9.158;2022-07-29T08:39:02;26.10;99.90
13433;DHT22;6789;47.678;9.158;2022-07-29T08:44:11;25.40;99.90
13433;DHT22;6789;47.678;9.158;2022-07-29T08:49:13;24.80;99.90
13433;DHT22;6789;47.678;9.158;2022-07-29T08:54:23;24.80;99.90
13433;DHT22;6789;47.678;9.158;2022-07-29T08:59:30;24.50;99.90
13433;DHT22;6789;47.678;9.158;2022-07-29T09:04:39;24.70;99.90
13433;DHT22;6789;47.678;9.158;2022-07-29T09:09:45;24.90;99.90
13433;DHT22;6789;47.678;9.158;2022-07-29T09:14:53;24.90;99.90
13433;DHT22;6789;47.678;9.158;2022-07-29T09:20:09;24.90;99.90
13433;DHT22;6789;47.678;9.158;2022-07-29T09:25:43;25.00;99.90
13433;DHT22;6789;47.678;9.158;2022-07-29T09:31:35;25.10;99.90
13433;DHT22;6789;47.678;9.158;2022-07-29T09:36:49;25.10;99.90
13433;DHT22;6789;47.678;9.158;2022-07-29T09:41:55;25.10;99.90
13433;DHT22;6789;47.678;9.158;2022-07-29T09:47:04;24.90;99.90
13433;DHT22;6789;47.678;9.158;2022-07-29T09:52:14;24.70;99.90
13433;DHT22;6789;47.678;9.158;2022-07-29T09:57:26;24.90;99.90
13433;DHT22;6789;47.678;9.158;2022-07-29T10:02:36;24.70;99.90
13433;DHT22;6789;47.678;9.158;2022-07-29T10:07:56;24.50;99.90
13433;DHT22;6789;47.678;9.158;2022-07-29T10:13:08;24.00;99.90
13433;DHT22;6789;47.678;9.158;2022-07-29T10:18:17;24.40;99.90
13433;DHT22;6789;47.678;9.158;2022-07-29T10:23:29;24.70;99.90
13433;DHT22;6789;47.678;9.158;2022-07-29T10:28:36;25.20;99.90
13433;DHT22;6789;47.678;9.158;2022-07-29T10:34:00;25.60;99.90
13433;DHT22;6789;47.678;9.158;2022-07-29T10:39:54;25.80;99.90
13433;DHT22;6789;47.678;9.158;2022-07-29T10:45:37;26.70;99.90
13433;DHT22;6789;47.678;9.158;2022-07-29T10:51:12;27.00;99.90
13433;DHT22;6789;47.678;9.158;2022-07-29T10:56:31;27.40;99.90
13433;DHT22;6789;47.678;9.158;2022-07-29T11:01:54;27.30;99.90
13433;DHT22;6789;47.678;9.158;2022-07-29T11:23:26;27.50;99.90
13433;DHT22;6789;47.678;9.158;2022-07-29T11:34:31;28.20;99.90
13433;DHT22;6789;47.678;9.158;2022-07-29T11:50:32;27.90;99.90
13433;DHT22;6789;47.678;9.158;2022-07-29T11:55:41;27.70;99.90
13433;DHT22;6789;47.678;9.158;2022-07-29T12:00:50;27.50;99.90
13433;DHT22;6789;47.678;9.158;2022-07-29T12:05:44;26.50;99.90
13433;DHT22;6789;47.678;9.158;2022-07-29T12:10:51;26.50;99.90
13433;DHT22;6789;47.678;9.158;2022-07-29T12:15:53;26.70;99.90
13433;DHT22;6789;47.678;9.158;2022-07-29T12:21:01;27.00;99.90
13433;DHT22;6789;47.678;9.158;2022-07-29T12:25:59;27.20;99.90
13433;DHT22;6789;47.678;9.158;2022-07-29T12:31:27;27.40;99.90
13433;DHT22;6789;47.678;9.158;2022-07-29T12:36:34;27.50;99.90
13433;DHT22;6789;47.678;9.158;2022-07-29T12:41:44;27.40;99.90
13433;DHT22;6789;47.678;9.158;2022-07-29T12:47:03;28.00;99.90
13433;DHT22;6789;47.678;9.158;2022-07-29T12:51:56;28.50;99.90
13433;DHT22;6789;47.678;9.158;2022-07-29T12:56:58;28.20;99.90
13433;DHT22;6789;47.678;9.158;2022-07-29T13:02:05;28.70;99.90
13433;DHT22;6789;47.678;9.158;2022-07-29T13:07:00;28.60;99.90
13433;DHT22;6789;47.678;9.158;2022-07-29T13:11:55;28.70;99.90
13433;DHT22;6789;47.678;9.158;2022-07-29T13:22:02;28.10;99.90
13433;DHT22;6789;47.678;9.158;2022-07-29T13:26:54;28.30;99.90
13433;DHT22;6789;47.678;9.158;2022-07-29T13:31:46;28.00;99.90
13433;DHT22;6789;47.678;9.158;2022-07-29T13:36:38;27.80;99.90
13433;DHT22;6789;47.678;9.158;2022-07-29T13:41:32;27.10;99.90
13433;DHT22;6789;47.678;9.158;2022-07-29T13:46:38;26.40;99.90
13433;DHT22;6789;47.678;9.158;2022-07-29T13:51:35;26.10;99.90
13433;DHT22;6789;47.678;9.158;2022-07-29T13:56:41;26.40;99.90
13433;DHT22;6789;47.678;9.158;2022-07-29T14:01:34;26.50;99.90
13433;DHT22;6789;47.678;9.158;2022-07-29T14:06:26;26.90;99.90
13433;DHT22;6789;47.678;9.158;2022-07-29T14:11:20;27.10;99.90
13433;DHT22;6789;47.678;9.158;2022-07-29T14:16:12;27.10;99.90
13433;DHT22;6789;47.678;9.158;2022-07-29T14:21:08;27.20;99.90
13433;DHT22;6789;47.678;9.158;2022-07-29T14:26:01;27.10;99.90
13433;DHT22;6789;47.678;9.158;2022-07-29T14:30:53;26.80;99.90
13433;DHT22;6789;47.678;9.158;2022-07-29T14:35:44;26.40;99.90
13433;DHT22;6789;47.678;9.158;2022-07-29T14:40:37;25.70;99.90
13433;DHT22;6789;47.678;9.158;2022-07-29T14:45:29;25.10;99.90
13433;DHT22;6789;47.678;9.158;2022-07-29T14:50:22;24.40;99.90
13433;DHT22;6789;47.678;9.158;2022-07-29T14:55:22;23.80;99.90
13433;DHT22;6789;47.678;9.158;2022-07-29T15:00:28;23.20;99.90
13433;DHT22;6789;47.678;9.158;2022-07-29T15:05:30;22.70;99.90
13433;DHT22;6789;47.678;9.158;2022-07-29T15:10:27;22.50;99.90
13433;DHT22;6789;47.678;9.158;2022-07-29T15:15:24;22.30;99.90
13433;DHT22;6789;47.678;9.158;2022-07-29T15:20:24;22.00;99.90
13433;DHT22;6789;47.678;9.158;2022-07-29T15:25:22;21.80;99.90
13433;DHT22;6789;47.678;9.158;2022-07-29T15:30:32;21.90;99.90
13433;DHT22;6789;47.678;9.158;2022-07-29T15:35:29;21.70;99.90
13433;DHT22;6789;47.678;9.158;2022-07-29T15:40:31;21.80;99.90
13433;DHT22;6789;47.678;9.158;2022-07-29T15:45:41;21.80;99.90
13433;DHT22;6789;47.678;9.158;2022-07-29T15:51:25;21.70;99.90
13433;DHT22;6789;47.678;9.158;2022-07-29T15:56:32;21.60;99.90
13433;DHT22;6789;47.678;9.158;2022-07-29T16:01:42;21.50;99.90
13433;DHT22;6789;47.678;9.158;2022-07-29T16:06:48;21.40;99.90
13433;DHT22;6789;47.678;9.158;2022-07-29T16:11:54;21.40;99.90
13433;DHT22;6789;47.678;9.158;2022-07-29T16:16:48;21.50;99.90
13433;DHT22;6789;47.678;9.158;2022-07-29T16:21:40;21.50;99.90
13433;DHT22;6789;47.678;9.158;2022-07-29T16:26:33;21.50;99.90
13433;DHT22;6789;47.678;9.158;2022-07-29T16:31:32;21.40;99.90
13433;DHT22;6789;47.678;9.158;2022-07-29T16:36:46;21.40;99.90
13433;DHT22;6789;47.678;9.158;2022-07-29T16:41:53;21.30;99.90
13433;DHT22;6789;47.678;9.158;2022-07-29T16:46:59;21.00;99.90
13433;DHT22;6789;47.678;9.158;2022-07-29T16:52:05;21.10;99.90
13433;DHT22;6789;47.678;9.158;2022-07-29T16:57:13;21.00;99.90
13433;DHT22;6789;47.678;9.158;2022-07-29T17:02:19;21.00;99.90
13433;DHT22;6789;47.678;9.158;2022-07-29T17:07:12;20.90;99.90
13433;DHT22;6789;47.678;9.158;2022-07-29T17:12:12;20.80;99.90
13433;DHT22;6789;47.678;9.158;2022-07-29T17:17:18;20.70;99.90
13433;DHT22;6789;47.678;9.158;2022-07-29T17:22:25;20.60;99.90
13433;DHT22;6789;47.678;9.158;2022-07-29T17:27:23;20.60;99.90
13433;DHT22;6789;47.678;9.158;2022-07-29T17:32:29;20.70;99.90
13433;DHT22;6789;47.678;9.158;2022-07-29T17:37:40;20.70;99.90
13433;DHT22;6789;47.678;9.158;2022-07-29T17:42:46;20.90;99.90
13433;DHT22;6789;47.678;9.158;2022-07-29T17:47:52;21.00;99.90
13433;DHT22;6789;47.678;9.158;2022-07-29T17:52:59;20.80;99.90
13433;DHT22;6789;47.678;9.158;2022-07-29T17:58:06;20.70;99.90
13433;DHT22;6789;47.678;9.158;2022-07-29T18:03:15;20.60;99.90
13433;DHT22;6789;47.678;9.158;2022-07-29T18:08:23;20.60;99.90
13433;DHT22;6789;47.678;9.158;2022-07-29T18:13:24;20.60;99.90
13433;DHT22;6789;47.678;9.158;2022-07-29T18:18:17;20.60;99.90
13433;DHT22;6789;47.678;9.158;2022-07-29T18:23:13;20.50;99.90
13433;DHT22;6789;47.678;9.158;2022-07-29T18:28:24;20.70;99.90
13433;DHT22;6789;47.678;9.158;2022-07-29T18:33:29;20.80;99.90
13433;DHT22;6789;47.678;9.158;2022-07-29T18:38:27;21.10;99.90
13433;DHT22;6789;47.678;9.158;2022-07-29T18:43:20;21.10;99.90
13433;DHT22;6789;47.678;9.158;2022-07-29T18:48:26;21.00;99.90
13433;DHT22;6789;47.678;9.158;2022-07-29T18:53:32;20.80;99.90
13433;DHT22;6789;47.678;9.158;2022-07-29T18:58:39;20.60;99.90
13433;DHT22;6789;47.678;9.158;2022-07-29T19:03:45;20.50;99.90
13433;DHT22;6789;47.678;9.158;2022-07-29T19:08:41;20.50;99.90
13433;DHT22;6789;47.678;9.158;2022-07-29T19:13:50;20.40;99.90
13433;DHT22;6789;47.678;9.158;2022-07-29T19:18:56;20.50;99.90
13433;DHT22;6789;47.678;9.158;2022-07-29T19:24:03;20.40;99.90
13433;DHT22;6789;47.678;9.158;2022-07-29T19:29:05;20.20;99.90
13433;DHT22;6789;47.678;9.158;2022-07-29T19:34:01;20.20;99.90
13433;DHT22;6789;47.678;9.158;2022-07-29T19:38:53;20.10;99.90
13433;DHT22;6789;47.678;9.158;2022-07-29T19:43:44;20.20;99.90
13433;DHT22;6789;47.678;9.158;2022-07-29T19:48:44;20.10;99.90
13433;DHT22;6789;47.678;9.158;2022-07-29T19:53:36;20.20;99.90
13433;DHT22;6789;47.678;9.158;2022-07-29T19:58:28;20.40;99.90
13433;DHT22;6789;47.678;9.158;2022-07-29T20:03:20;20.20;99.90
13433;DHT22;6789;47.678;9.158;2022-07-29T20:08:12;20.20;99.90
13433;DHT22;6789;47.678;9.158;2022-07-29T20:13:04;20.00;99.90
13433;DHT22;6789;47.678;9.158;2022-07-29T20:17:55;19.70;99.90
13433;DHT22;6789;47.678;9.158;2022-07-29T20:22:48;19.70;99.90
13433;DHT22;6789;47.678;9.158;2022-07-29T20:27:39;19.80;99.90
13433;DHT22;6789;47.678;9.158;2022-07-29T20:32:32;19.80;99.90
13433;DHT22;6789;47.678;9.158;2022-07-29T20:37:24;19.80;99.90
13433;DHT22;6789;47.678;9.158;2022-07-29T20:42:17;19.70;99.90
13433;DHT22;6789;47.678;9.158;2022-07-29T20:47:09;19.60;99.90
13433;DHT22;6789;47.678;9.158;2022-07-29T20:52:02;19.30;99.90
13433;DHT22;6789;47.678;9.158;2022-07-29T20:56:54;19.00;99.90
13433;DHT22;6789;47.678;9.158;2022-07-29T21:01:46;18.90;99.90
13433;DHT22;6789;47.678;9.158;2022-07-29T21:06:39;18.90;99.90
13433;DHT22;6789;47.678;9.158;2022-07-29T21:11:39;18.80;99.90
13433;DHT22;6789;47.678;9.158;2022-07-29T21:16:35;18.60;99.90
13433;DHT22;6789;47.678;9.158;2022-07-29T21:21:28;18.50;99.90
13433;DHT22;6789;47.678;9.158;2022-07-29T21:26:24;18.40;99.90
13433;DHT22;6789;47.678;9.158;2022-07-29T21:31:18;18.30;99.90
13433;DHT22;6789;47.678;9.158;2022-07-29T21:36:10;18.40;99.90
13433;DHT22;6789;47.678;9.158;2022-07-29T21:41:23;18.50;99.90
13433;DHT22;6789;47.678;9.158;2022-07-29T21:46:19;18.40;99.90
13433;DHT22;6789;47.678;9.158;2022-07-29T21:51:15;18.40;99.90
13433;DHT22;6789;47.678;9.158;2022-07-29T21:56:11;18.40;99.90
13433;DHT22;6789;47.678;9.158;2022-07-29T22:01:08;18.30;99.90
13433;DHT22;6789;47.678;9.158;2022-07-29T22:06:00;18.50;99.90
13433;DHT22;6789;47.678;9.158;2022-07-29T22:10:52;18.30;99.90
13433;DHT22;6789;47.678;9.158;2022-07-29T22:15:44;18.10;99.90
13433;DHT22;6789;47.678;9.158;2022-07-29T22:20:37;18.10;99.90
13433;DHT22;6789;47.678;9.158;2022-07-29T22:25:32;18.20;99.90
13433;DHT22;6789;47.678;9.158;2022-07-29T22:30:24;18.10;99.90
13433;DHT22;6789;47.678;9.158;2022-07-29T22:35:17;18.30;99.90
13433;DHT22;6789;47.678;9.158;2022-07-29T22:40:09;18.20;99.90
13433;DHT22;6789;47.678;9.158;2022-07-29T22:45:02;18.20;99.90
13433;DHT22;6789;47.678;9.158;2022-07-29T22:49:57;18.00;99.90
13433;DHT22;6789;47.678;9.158;2022-07-29T22:55:04;17.90;99.90
13433;DHT22;6789;47.678;9.158;2022-07-29T22:59:57;17.80;99.90
13433;DHT22;6789;47.678;9.158;2022-07-29T23:04:52;18.00;99.90
13433;DHT22;6789;47.678;9.158;2022-07-29T23:09:44;17.90;99.90
13433;DHT22;6789;47.678;9.158;2022-07-29T23:14:36;17.90;99.90
13433;DHT22;6789;47.678;9.158;2022-07-29T23:19:28;18.00;99.90
13433;DHT22;6789;47.678;9.158;2022-07-29T23:24:20;17.90;99.90
13433;DHT22;6789;47.678;9.158;2022-07-29T23:29:12;17.90;99.90
13433;DHT22;6789;47.678;9.158;2022-07-29T23:34:04;18.00;99.90
13433;DHT22;6789;47.678;9.158;2022-07-29T23:38:56;18.20;99.90
13433;DHT22;6789;47.678;9.158;2022-07-29T23:43:48;18.00;99.90
13433;DHT22;6789;47.678;9.158;2022-07-29T23:48:41;17.90;99.90
13433;DHT22;6789;47.678;9.158;2022-07-29T23:53:36;17.70;99.90
13433;DHT22;6789;47.678;9.158;2022-07-29T23:58:43;17.50;99.90
